Boca Raton Airport


Codes: KBCT/BCT
Name: Boca Raton Airport
City: Boca Raton
Country: United States
Elevation: 13 ft.
Wikipedia:

Photos at Boca Raton Airport


   Photos courtesy of SpottingLog. You can add your own sightings and photos by signing up for a free trial today.



No photos found.

Weather at Boca Raton Airport


Time (UTC)DescriptionTempratureWindCloud coverageVisibilityPressureHumidity
17-Jun-2024 06:00Scattered Clouds28°C9 mph, E32%10000m1016hPa80%
17-Jun-2024 09:00Light Rain27°C11 mph, E65%10000m1016hPa79%
17-Jun-2024 12:00Light Rain27°C16 mph, E88%10000m1016hPa74%
17-Jun-2024 15:00Light Rain29°C18 mph, E100%10000m1017hPa58%
17-Jun-2024 18:00Overcast Clouds30°C16 mph, E100%10000m1016hPa56%
17-Jun-2024 21:00Overcast Clouds30°C16 mph, E91%10000m1015hPa58%
18-Jun-2024 00:00Light Rain28°C16 mph, E96%10000m1015hPa63%
18-Jun-2024 03:00Light Rain28°C16 mph, E100%10000m1016hPa66%
18-Jun-2024 06:00Light Rain27°C13 mph, E94%10000m1015hPa71%
18-Jun-2024 09:00Light Rain27°C13 mph, E100%10000m1014hPa71%
18-Jun-2024 12:00Overcast Clouds28°C13 mph, E100%10000m1015hPa68%
18-Jun-2024 15:00Overcast Clouds30°C16 mph, E100%10000m1015hPa61%
18-Jun-2024 18:00Light Rain31°C16 mph, E100%10000m1014hPa58%
18-Jun-2024 21:00Light Rain30°C18 mph, E93%10000m1013hPa62%
19-Jun-2024 00:00Light Rain28°C18 mph, E83%10000m1014hPa72%
19-Jun-2024 03:00Light Rain27°C18 mph, E45%10000m1015hPa77%
19-Jun-2024 06:00Light Rain27°C16 mph, E38%10000m1015hPa77%
19-Jun-2024 09:00Light Rain27°C16 mph, E14%10000m1014hPa76%
19-Jun-2024 12:00Light Rain28°C16 mph, E15%10000m1015hPa72%
19-Jun-2024 15:00Light Rain30°C16 mph, E26%10000m1016hPa62%
19-Jun-2024 18:00Light Rain30°C16 mph, E18%10000m1016hPa60%
19-Jun-2024 21:00Light Rain30°C18 mph, E24%10000m1014hPa60%
20-Jun-2024 00:00Few Clouds28°C18 mph, E24%10000m1015hPa65%
20-Jun-2024 03:00Light Rain28°C18 mph, E28%10000m1015hPa72%
20-Jun-2024 06:00Light Rain27°C16 mph, E63%10000m1015hPa73%
20-Jun-2024 09:00Light Rain26°C13 mph, E77%10000m1014hPa77%
20-Jun-2024 12:00Light Rain27°C13 mph, E76%10000m1016hPa75%
20-Jun-2024 15:00Light Rain30°C16 mph, E37%10000m1017hPa62%
20-Jun-2024 18:00Light Rain31°C16 mph, E36%10000m1017hPa56%
20-Jun-2024 21:00Scattered Clouds31°C16 mph, E38%10000m1016hPa57%
21-Jun-2024 00:00Scattered Clouds29°C11 mph, E31%10000m1016hPa66%
21-Jun-2024 03:00Light Rain28°C11 mph, E36%10000m1017hPa74%
21-Jun-2024 06:00Light Rain28°C11 mph, E31%10000m1016hPa76%
21-Jun-2024 09:00Moderate Rain27°C11 mph, SE87%10000m1016hPa80%
21-Jun-2024 12:00Light Rain28°C9 mph, SE93%10000m1017hPa78%
21-Jun-2024 15:00Overcast Clouds30°C16 mph, E98%10000m1018hPa67%
21-Jun-2024 18:00Light Rain31°C16 mph, E99%10000m1018hPa60%
21-Jun-2024 21:00Overcast Clouds30°C16 mph, E100%10000m1017hPa61%
22-Jun-2024 00:00Light Rain29°C16 mph, E100%10000m1017hPa66%
22-Jun-2024 03:00Light Rain28°C13 mph, SE79%10000m1019hPa69%